ADDS METAR Data INFO
IDs: Format: Raw Decoded Include TAF

Data at: 1028 UTC 23 Feb 2018

KBYG 230953Z AUTO 19004KT 10SM CLR M13/M21 A3003 RMK AO2 SLP225 T11331206
KBYG 230853Z AUTO 00000KT 10SM CLR M15/M22 A3004 RMK AO2 SLP231 T11501217 58003
KBYG 230753Z AUTO 00000KT 10SM CLR M13/M20 A3005 RMK AO2 SLP231 T11281200
KBYG 230653Z AUTO 00000KT 10SM CLR M12/M21 A3005 RMK AO2 SLP230 T11221206 410281150
KBYG 230553Z AUTO 34005KT 10SM CLR M11/M20 A3005 RMK AO2 SLP228 T11111200 11083 21139 51004
KBYG 230453Z AUTO 32004KT 10SM CLR M13/M21 A3004 RMK AO2 SLP238 T11331211
KBYG 230353Z AUTO 30005KT 10SM CLR M10/M20 A3004 RMK AO2 SLP233 T11001200
KBYG 230253Z AUTO 32007KT 10SM CLR M09/M20 A3004 RMK AO2 SLP235 T10941200 51011
KBYG 230153Z AUTO 28003KT 10SM CLR M11/M20 A3003 RMK AO2 SLP235 T11061200
KBYG 230053Z AUTO 32009KT 10SM CLR M09/M18 A3001 RMK AO2 SLP225 T10941178
KBYG 222353Z AUTO 32010KT 10SM FEW070 M08/M17 A3000 RMK AO2 SLP220 T10831172 11028 21083 53009
KBYG 222253Z AUTO 33006KT 10SM CLR M05/M16 A2998 RMK AO2 SLP209 T10501161
KBYG 222153Z AUTO 36005KT 10SM CLR M04/M14 A2997 RMK AO2 SLP202 T10391144
KBYG 222053Z AUTO 10SM CLR M03/M17 A2997 RMK AO2 SLP196 T10281167 56011
KBYG 221953Z AUTO 06003KT 10SM FEW100 M03/M18 A2998 RMK AO2 SLP195 T10281183
KBYG 221853Z AUTO 11003KT 10SM CLR M04/M16 A2999 RMK AO2 SLP208 T10391161
KBYG 221753Z AUTO 00000KT 10SM CLR M04/M16 A3000 RMK AO2 SLP202 T10391161 11039 21128 58000
KBYG 221653Z AUTO 24003KT 10SM CLR M07/M17 A3001 RMK AO2 SLP211 T10671172
KBYG 221553Z AUTO 25007KT 10SM CLR M08/M19 A3001 RMK AO2 SLP218 T10781189
KBYG 221453Z AUTO 26008KT 10SM CLR M11/M20 A3001 RMK AO2 SLP232 T11061200 51002
KBYG 221353Z AUTO 25009KT 10SM CLR M11/M21 A3000 RMK AO2 SLP232 T11061211
KBYG 221253Z AUTO 25008KT 10SM CLR M10/M21 A3000 RMK AO2 SLP227 T11001206 $
KBYG 221153Z AUTO 25007KT 10SM CLR M11/M21 A3000 RMK AO2 SLP224 T11111211 11067 21150 56005 $
KBYG 221053Z AUTO 25007KT 10SM CLR M12/M22 A3000 RMK AO2 SLP225 T11221217 $
KBYG 220953Z AUTO 30006KT 10SM CLR M12/M21 A3000 RMK AO2 SLP224 T11171211 $
KBYG 220853Z AUTO 31004KT 10SM CLR M11/M21 A3001 RMK AO2 SLP227 T11061206 53004 $
KBYG 220753Z AUTO 24005KT 10SM CLR M09/M21 A3000 RMK AO2 SLP219 T10891206
KBYG 220653Z AUTO 32005KT 10SM CLR M11/M21 A3000 RMK AO2 SLP223 T11111206 410611211
KBYG 220553Z AUTO 27014KT 10SM CLR M07/M18 A3000 RMK AO2 SLP221 T10671183 11061 21161 58003
KBYG 220453Z AUTO 27015KT 10SM CLR M07/M19 A3001 RMK AO2 SLP225 T10671189
KBYG 220353Z AUTO 34007KT 10SM CLR M09/M21 A3001 RMK AO2 SLP232 T10941206
KBYG 212353Z AUTO 17004KT 10SM CLR M10/M17 A3002 RMK AO2 SLP246 60000 T11001172 11078 21122 56005
KBYG 212253Z AUTO 14004KT 10SM CLR M09/M17 A3002 RMK AO2 SLP250 T10941167